sensor_id;sensor_type;location;lat;lon;timestamp;temperature;humidity
8465;DHT22;4269;52.458;13.430;2022-07-29T00:08:08;18.60;99.90
8465;DHT22;4269;52.458;13.430;2022-07-29T00:10:34;18.50;99.90
8465;DHT22;4269;52.458;13.430;2022-07-29T00:13:00;18.60;99.90
8465;DHT22;4269;52.458;13.430;2022-07-29T00:22:44;18.20;99.90
8465;DHT22;4269;52.458;13.430;2022-07-29T00:25:12;18.30;99.90
8465;DHT22;4269;52.458;13.430;2022-07-29T00:30:04;18.20;99.90
8465;DHT22;4269;52.458;13.430;2022-07-29T00:32:30;18.30;99.90
8465;DHT22;4269;52.458;13.430;2022-07-29T00:40:08;18.20;99.90
8465;DHT22;4269;52.458;13.430;2022-07-29T00:42:48;18.10;99.90
8465;DHT22;4269;52.458;13.430;2022-07-29T00:47:40;18.30;99.90
8465;DHT22;4269;52.458;13.430;2022-07-29T00:50:07;17.50;99.90
8465;DHT22;4269;52.458;13.430;2022-07-29T00:52:36;18.20;99.90
8465;DHT22;4269;52.458;13.430;2022-07-29T00:55:03;18.10;99.90
8465;DHT22;4269;52.458;13.430;2022-07-29T00:57:29;18.10;99.90
8465;DHT22;4269;52.458;13.430;2022-07-29T00:59:55;17.80;99.90
8465;DHT22;4269;52.458;13.430;2022-07-29T01:04:47;17.30;99.90
8465;DHT22;4269;52.458;13.430;2022-07-29T01:09:40;17.90;99.90
8465;DHT22;4269;52.458;13.430;2022-07-29T01:12:06;17.90;99.90
8465;DHT22;4269;52.458;13.430;2022-07-29T01:17:02;17.80;99.90
8465;DHT22;4269;52.458;13.430;2022-07-29T01:30:25;17.80;99.90
8465;DHT22;4269;52.458;13.430;2022-07-29T01:33:00;17.70;99.90
8465;DHT22;4269;52.458;13.430;2022-07-29T01:35:34;17.60;99.90
8465;DHT22;4269;52.458;13.430;2022-07-29T01:40:48;17.60;99.90
8465;DHT22;4269;52.458;13.430;2022-07-29T01:43:17;17.60;99.90
8465;DHT22;4269;52.458;13.430;2022-07-29T01:45:58;17.60;99.90
8465;DHT22;4269;52.458;13.430;2022-07-29T01:48:47;17.50;99.90
8465;DHT22;4269;52.458;13.430;2022-07-29T01:51:33;17.40;99.90
8465;DHT22;4269;52.458;13.430;2022-07-29T01:54:05;17.60;99.90
8465;DHT22;4269;52.458;13.430;2022-07-29T01:56:33;17.50;99.90
8465;DHT22;4269;52.458;13.430;2022-07-29T01:59:01;17.50;99.90
8465;DHT22;4269;52.458;13.430;2022-07-29T02:01:29;17.60;99.90
8465;DHT22;4269;52.458;13.430;2022-07-29T02:03:56;17.50;99.90
8465;DHT22;4269;52.458;13.430;2022-07-29T02:06:25;17.40;99.90
8465;DHT22;4269;52.458;13.430;2022-07-29T02:08:52;17.40;99.90
8465;DHT22;4269;52.458;13.430;2022-07-29T02:11:19;17.60;99.90
8465;DHT22;4269;52.458;13.430;2022-07-29T02:13:45;17.20;99.90
8465;DHT22;4269;52.458;13.430;2022-07-29T02:18:41;17.30;99.90
8465;DHT22;4269;52.458;13.430;2022-07-29T02:21:07;17.30;99.90
8465;DHT22;4269;52.458;13.430;2022-07-29T02:23:35;17.30;99.90
8465;DHT22;4269;52.458;13.430;2022-07-29T02:28:29;17.40;99.90
8465;DHT22;4269;52.458;13.430;2022-07-29T02:30:58;17.40;99.90
8465;DHT22;4269;52.458;13.430;2022-07-29T02:33:25;17.30;99.90
8465;DHT22;4269;52.458;13.430;2022-07-29T02:38:18;17.20;99.90
8465;DHT22;4269;52.458;13.430;2022-07-29T02:41:08;17.30;99.90
8465;DHT22;4269;52.458;13.430;2022-07-29T02:43:35;17.60;99.90
8465;DHT22;4269;52.458;13.430;2022-07-29T02:46:04;17.30;99.90
8465;DHT22;4269;52.458;13.430;2022-07-29T02:51:32;17.30;99.90
8465;DHT22;4269;52.458;13.430;2022-07-29T02:54:01;17.20;99.90
8465;DHT22;4269;52.458;13.430;2022-07-29T02:56:32;17.20;99.90
8465;DHT22;4269;52.458;13.430;2022-07-29T02:59:03;17.20;99.90
8465;DHT22;4269;52.458;13.430;2022-07-29T03:01:31;17.30;99.90
8465;DHT22;4269;52.458;13.430;2022-07-29T03:04:01;17.30;99.90
8465;DHT22;4269;52.458;13.430;2022-07-29T03:06:30;17.20;99.90
8465;DHT22;4269;52.458;13.430;2022-07-29T03:08:57;16.80;99.90
8465;DHT22;4269;52.458;13.430;2022-07-29T03:11:24;17.30;99.90
8465;DHT22;4269;52.458;13.430;2022-07-29T03:16:19;17.20;99.90
8465;DHT22;4269;52.458;13.430;2022-07-29T03:18:45;17.00;99.90
8465;DHT22;4269;52.458;13.430;2022-07-29T03:23:43;17.00;99.90
8465;DHT22;4269;52.458;13.430;2022-07-29T03:26:10;17.10;99.90
8465;DHT22;4269;52.458;13.430;2022-07-29T03:38:23;17.00;99.90
8465;DHT22;4269;52.458;13.430;2022-07-29T03:40:53;16.90;99.90
8465;DHT22;4269;52.458;13.430;2022-07-29T03:43:20;17.10;99.90
8465;DHT22;4269;52.458;13.430;2022-07-29T03:45:50;17.10;99.90
8465;DHT22;4269;52.458;13.430;2022-07-29T03:48:21;17.10;99.90
8465;DHT22;4269;52.458;13.430;2022-07-29T03:53:13;16.30;99.90
8465;DHT22;4269;52.458;13.430;2022-07-29T03:55:46;17.00;99.90
8465;DHT22;4269;52.458;13.430;2022-07-29T03:58:13;17.00;99.90
8465;DHT22;4269;52.458;13.430;2022-07-29T04:00:40;17.00;99.90
8465;DHT22;4269;52.458;13.430;2022-07-29T04:03:06;16.60;99.90
8465;DHT22;4269;52.458;13.430;2022-07-29T04:05:32;16.60;99.90
8465;DHT22;4269;52.458;13.430;2022-07-29T04:15:16;17.40;99.90
8465;DHT22;4269;52.458;13.430;2022-07-29T04:17:42;17.00;99.90
8465;DHT22;4269;52.458;13.430;2022-07-29T04:39:37;17.30;99.90
8465;DHT22;4269;52.458;13.430;2022-07-29T04:42:03;17.30;99.90
8465;DHT22;4269;52.458;13.430;2022-07-29T04:46:56;17.30;99.90
8465;DHT22;4269;52.458;13.430;2022-07-29T04:49:21;17.30;99.90
8465;DHT22;4269;52.458;13.430;2022-07-29T04:54:13;17.40;99.90
8465;DHT22;4269;52.458;13.430;2022-07-29T04:56:39;17.60;99.90
8465;DHT22;4269;52.458;13.430;2022-07-29T05:08:48;17.60;99.90
8465;DHT22;4269;52.458;13.430;2022-07-29T05:11:14;18.10;99.90
8465;DHT22;4269;52.458;13.430;2022-07-29T05:13:39;18.20;99.90
8465;DHT22;4269;52.458;13.430;2022-07-29T05:16:05;18.10;99.90
8465;DHT22;4269;52.458;13.430;2022-07-29T05:25:48;18.20;99.90
8465;DHT22;4269;52.458;13.430;2022-07-29T05:35:35;18.60;99.90
8465;DHT22;4269;52.458;13.430;2022-07-29T05:38:03;18.60;99.90
8465;DHT22;4269;52.458;13.430;2022-07-29T05:40:31;17.80;99.90
8465;DHT22;4269;52.458;13.430;2022-07-29T05:45:23;18.50;99.90
8465;DHT22;4269;52.458;13.430;2022-07-29T05:52:41;19.50;99.90
8465;DHT22;4269;52.458;13.430;2022-07-29T05:55:07;18.70;99.90
8465;DHT22;4269;52.458;13.430;2022-07-29T05:59:59;19.00;99.90
8465;DHT22;4269;52.458;13.430;2022-07-29T06:17:03;19.90;99.90
8465;DHT22;4269;52.458;13.430;2022-07-29T06:19:29;19.90;99.90
8465;DHT22;4269;52.458;13.430;2022-07-29T06:24:20;20.10;99.90
8465;DHT22;4269;52.458;13.430;2022-07-29T06:34:04;20.20;99.90
8465;DHT22;4269;52.458;13.430;2022-07-29T06:36:30;20.30;99.90
8465;DHT22;4269;52.458;13.430;2022-07-29T06:43:49;20.90;99.90
8465;DHT22;4269;52.458;13.430;2022-07-29T06:46:17;20.60;99.90
8465;DHT22;4269;52.458;13.430;2022-07-29T06:48:44;20.50;99.90
8465;DHT22;4269;52.458;13.430;2022-07-29T06:51:10;20.50;99.90
8465;DHT22;4269;52.458;13.430;2022-07-29T06:53:37;20.60;99.90
8465;DHT22;4269;52.458;13.430;2022-07-29T06:56:04;20.50;99.90
8465;DHT22;4269;52.458;13.430;2022-07-29T06:58:31;20.50;99.90
8465;DHT22;4269;52.458;13.430;2022-07-29T07:00:58;20.30;99.90
8465;DHT22;4269;52.458;13.430;2022-07-29T07:03:24;20.30;99.90
8465;DHT22;4269;52.458;13.430;2022-07-29T07:10:43;20.90;99.90
8465;DHT22;4269;52.458;13.430;2022-07-29T07:13:08;21.20;99.90
8465;DHT22;4269;52.458;13.430;2022-07-29T07:15:35;21.00;99.90
8465;DHT22;4269;52.458;13.430;2022-07-29T07:22:53;21.50;99.90
8465;DHT22;4269;52.458;13.430;2022-07-29T07:25:19;21.50;99.90
8465;DHT22;4269;52.458;13.430;2022-07-29T07:30:11;21.60;99.90
8465;DHT22;4269;52.458;13.430;2022-07-29T07:35:05;21.80;99.90
8465;DHT22;4269;52.458;13.430;2022-07-29T07:42:23;22.10;99.90
8465;DHT22;4269;52.458;13.430;2022-07-29T07:44:49;22.50;99.90
8465;DHT22;4269;52.458;13.430;2022-07-29T07:47:15;22.50;99.90
8465;DHT22;4269;52.458;13.430;2022-07-29T08:04:20;23.20;99.90
8465;DHT22;4269;52.458;13.430;2022-07-29T08:06:46;22.70;99.90
8465;DHT22;4269;52.458;13.430;2022-07-29T08:11:38;22.40;99.90
8465;DHT22;4269;52.458;13.430;2022-07-29T08:18:55;23.30;99.90
8465;DHT22;4269;52.458;13.430;2022-07-29T08:21:23;23.60;99.90
8465;DHT22;4269;52.458;13.430;2022-07-29T08:23:49;23.50;99.90
8465;DHT22;4269;52.458;13.430;2022-07-29T08:28:44;23.70;97.30
8465;DHT22;4269;52.458;13.430;2022-07-29T08:31:12;23.70;97.50
8465;DHT22;4269;52.458;13.430;2022-07-29T08:33:38;23.80;97.30
8465;DHT22;4269;52.458;13.430;2022-07-29T08:36:05;23.60;97.90
8465;DHT22;4269;52.458;13.430;2022-07-29T08:40:58;23.30;96.30
8465;DHT22;4269;52.458;13.430;2022-07-29T08:43:25;23.50;96.00
8465;DHT22;4269;52.458;13.430;2022-07-29T08:45:52;23.70;96.40
8465;DHT22;4269;52.458;13.430;2022-07-29T08:48:20;23.60;95.10
8465;DHT22;4269;52.458;13.430;2022-07-29T08:50:47;23.60;94.30
8465;DHT22;4269;52.458;13.430;2022-07-29T08:53:15;23.70;94.60
8465;DHT22;4269;52.458;13.430;2022-07-29T08:55:42;23.90;95.80
8465;DHT22;4269;52.458;13.430;2022-07-29T08:58:09;24.00;96.20
8465;DHT22;4269;52.458;13.430;2022-07-29T09:00:36;23.60;95.50
8465;DHT22;4269;52.458;13.430;2022-07-29T09:03:04;23.40;96.20
8465;DHT22;4269;52.458;13.430;2022-07-29T09:05:31;23.80;96.50
8465;DHT22;4269;52.458;13.430;2022-07-29T09:07:57;23.80;95.40
8465;DHT22;4269;52.458;13.430;2022-07-29T09:10:24;23.80;94.80
8465;DHT22;4269;52.458;13.430;2022-07-29T09:15:16;24.10;92.80
8465;DHT22;4269;52.458;13.430;2022-07-29T09:17:47;24.30;92.80
8465;DHT22;4269;52.458;13.430;2022-07-29T09:20:19;24.80;91.20
8465;DHT22;4269;52.458;13.430;2022-07-29T09:22:45;25.00;91.40
8465;DHT22;4269;52.458;13.430;2022-07-29T09:25:31;25.00;91.00
8465;DHT22;4269;52.458;13.430;2022-07-29T09:28:11;25.30;90.30
8465;DHT22;4269;52.458;13.430;2022-07-29T09:30:54;25.20;90.00
8465;DHT22;4269;52.458;13.430;2022-07-29T09:33:21;25.40;87.50
8465;DHT22;4269;52.458;13.430;2022-07-29T09:36:07;25.20;88.20
8465;DHT22;4269;52.458;13.430;2022-07-29T09:38:33;25.30;86.80
8465;DHT22;4269;52.458;13.430;2022-07-29T09:41:02;25.30;89.80
8465;DHT22;4269;52.458;13.430;2022-07-29T09:45:54;25.50;86.70
8465;DHT22;4269;52.458;13.430;2022-07-29T09:48:21;25.50;88.20
8465;DHT22;4269;52.458;13.430;2022-07-29T09:53:38;25.60;84.90
8465;DHT22;4269;52.458;13.430;2022-07-29T09:56:05;25.70;81.50
8465;DHT22;4269;52.458;13.430;2022-07-29T10:01:00;25.80;79.20
8465;DHT22;4269;52.458;13.430;2022-07-29T10:03:26;26.00;77.10
8465;DHT22;4269;52.458;13.430;2022-07-29T10:06:09;26.30;76.60
8465;DHT22;4269;52.458;13.430;2022-07-29T10:08:35;26.30;71.00
8465;DHT22;4269;52.458;13.430;2022-07-29T10:11:15;26.40;70.90
8465;DHT22;4269;52.458;13.430;2022-07-29T10:13:42;26.50;69.80
8465;DHT22;4269;52.458;13.430;2022-07-29T10:16:08;26.80;67.10
8465;DHT22;4269;52.458;13.430;2022-07-29T10:18:35;26.80;67.80
8465;DHT22;4269;52.458;13.430;2022-07-29T10:21:02;26.90;68.90
8465;DHT22;4269;52.458;13.430;2022-07-29T10:23:29;27.00;65.20
8465;DHT22;4269;52.458;13.430;2022-07-29T10:28:21;26.10;64.50
8465;DHT22;4269;52.458;13.430;2022-07-29T10:30:50;26.60;59.80
8465;DHT22;4269;52.458;13.430;2022-07-29T10:46:40;27.80;60.70
8465;DHT22;4269;52.458;13.430;2022-07-29T10:54:37;28.30;57.00
8465;DHT22;4269;52.458;13.430;2022-07-29T10:59:39;28.00;55.70
8465;DHT22;4269;52.458;13.430;2022-07-29T11:07:28;27.60;57.10
8465;DHT22;4269;52.458;13.430;2022-07-29T11:15:10;26.90;58.00
8465;DHT22;4269;52.458;13.430;2022-07-29T11:20:42;26.40;59.30
8465;DHT22;4269;52.458;13.430;2022-07-29T11:23:26;26.50;61.90
8465;DHT22;4269;52.458;13.430;2022-07-29T11:31:18;26.90;59.90
8465;DHT22;4269;52.458;13.430;2022-07-29T11:33:45;27.10;64.70
8465;DHT22;4269;52.458;13.430;2022-07-29T11:36:13;26.90;61.30
8465;DHT22;4269;52.458;13.430;2022-07-29T11:38:39;26.90;61.60
8465;DHT22;4269;52.458;13.430;2022-07-29T11:43:47;27.30;62.50
8465;DHT22;4269;52.458;13.430;2022-07-29T11:46:13;27.60;62.70
8465;DHT22;4269;52.458;13.430;2022-07-29T11:48:43;27.70;60.80
8465;DHT22;4269;52.458;13.430;2022-07-29T11:51:10;27.70;61.40
8465;DHT22;4269;52.458;13.430;2022-07-29T11:53:38;28.10;60.50
8465;DHT22;4269;52.458;13.430;2022-07-29T11:56:08;28.10;62.00
8465;DHT22;4269;52.458;13.430;2022-07-29T11:58:34;28.20;61.90
8465;DHT22;4269;52.458;13.430;2022-07-29T12:01:01;28.30;63.40
8465;DHT22;4269;52.458;13.430;2022-07-29T12:03:27;28.20;61.60
8465;DHT22;4269;52.458;13.430;2022-07-29T12:05:54;28.20;62.20
8465;DHT22;4269;52.458;13.430;2022-07-29T12:08:21;28.40;64.40
8465;DHT22;4269;52.458;13.430;2022-07-29T12:10:48;28.50;63.80
8465;DHT22;4269;52.458;13.430;2022-07-29T12:13:18;28.60;62.90
8465;DHT22;4269;52.458;13.430;2022-07-29T12:15:52;28.40;62.10
8465;DHT22;4269;52.458;13.430;2022-07-29T12:18:19;27.90;64.80
8465;DHT22;4269;52.458;13.430;2022-07-29T12:20:48;28.40;66.60
8465;DHT22;4269;52.458;13.430;2022-07-29T12:23:14;28.40;63.40
8465;DHT22;4269;52.458;13.430;2022-07-29T12:25:43;27.90;65.00
8465;DHT22;4269;52.458;13.430;2022-07-29T12:28:13;29.10;59.30
8465;DHT22;4269;52.458;13.430;2022-07-29T12:30:44;29.20;58.40
8465;DHT22;4269;52.458;13.430;2022-07-29T12:33:18;29.80;58.80
8465;DHT22;4269;52.458;13.430;2022-07-29T12:35:47;29.70;59.40
8465;DHT22;4269;52.458;13.430;2022-07-29T12:38:13;29.90;58.70
8465;DHT22;4269;52.458;13.430;2022-07-29T12:40:39;29.90;58.90
8465;DHT22;4269;52.458;13.430;2022-07-29T12:45:44;30.10;56.00
8465;DHT22;4269;52.458;13.430;2022-07-29T12:48:11;29.90;57.70
8465;DHT22;4269;52.458;13.430;2022-07-29T12:50:58;29.90;56.90
8465;DHT22;4269;52.458;13.430;2022-07-29T12:55:51;29.30;57.20
8465;DHT22;4269;52.458;13.430;2022-07-29T13:01:13;29.10;59.60
8465;DHT22;4269;52.458;13.430;2022-07-29T13:06:41;29.80;59.00
8465;DHT22;4269;52.458;13.430;2022-07-29T13:09:12;30.00;58.60
8465;DHT22;4269;52.458;13.430;2022-07-29T13:11:44;30.00;56.70
8465;DHT22;4269;52.458;13.430;2022-07-29T13:14:36;29.90;57.30
8465;DHT22;4269;52.458;13.430;2022-07-29T13:17:31;30.10;56.20
8465;DHT22;4269;52.458;13.430;2022-07-29T13:20:06;30.20;56.30
8465;DHT22;4269;52.458;13.430;2022-07-29T13:22:34;30.30;56.00
8465;DHT22;4269;52.458;13.430;2022-07-29T13:25:02;30.50;58.30
8465;DHT22;4269;52.458;13.430;2022-07-29T13:27:29;30.40;55.80
8465;DHT22;4269;52.458;13.430;2022-07-29T13:29:58;30.50;56.60
8465;DHT22;4269;52.458;13.430;2022-07-29T13:32:26;30.40;55.40
8465;DHT22;4269;52.458;13.430;2022-07-29T13:34:52;30.50;55.50
8465;DHT22;4269;52.458;13.430;2022-07-29T13:37:19;30.50;55.90
8465;DHT22;4269;52.458;13.430;2022-07-29T13:39:45;30.70;55.60
8465;DHT22;4269;52.458;13.430;2022-07-29T13:42:10;31.40;54.00
8465;DHT22;4269;52.458;13.430;2022-07-29T13:44:39;31.50;54.70
8465;DHT22;4269;52.458;13.430;2022-07-29T13:47:05;32.10;52.20
8465;DHT22;4269;52.458;13.430;2022-07-29T13:49:31;32.40;50.10
8465;DHT22;4269;52.458;13.430;2022-07-29T13:51:57;32.40;50.50
8465;DHT22;4269;52.458;13.430;2022-07-29T13:54:23;32.30;51.20
8465;DHT22;4269;52.458;13.430;2022-07-29T13:56:50;32.30;51.60
8465;DHT22;4269;52.458;13.430;2022-07-29T13:59:16;32.50;50.70
8465;DHT22;4269;52.458;13.430;2022-07-29T14:01:41;33.10;48.80
8465;DHT22;4269;52.458;13.430;2022-07-29T14:04:08;33.40;47.70
8465;DHT22;4269;52.458;13.430;2022-07-29T14:06:33;33.30;47.40
8465;DHT22;4269;52.458;13.430;2022-07-29T14:08:59;33.30;47.80
8465;DHT22;4269;52.458;13.430;2022-07-29T14:11:24;33.10;48.50
8465;DHT22;4269;52.458;13.430;2022-07-29T14:13:50;32.80;48.60
8465;DHT22;4269;52.458;13.430;2022-07-29T14:16:15;32.20;47.70
8465;DHT22;4269;52.458;13.430;2022-07-29T14:18:41;33.20;47.10
8465;DHT22;4269;52.458;13.430;2022-07-29T14:21:07;33.20;47.50
8465;DHT22;4269;52.458;13.430;2022-07-29T14:23:33;33.50;46.40
8465;DHT22;4269;52.458;13.430;2022-07-29T14:25:59;33.90;45.70
8465;DHT22;4269;52.458;13.430;2022-07-29T14:28:25;34.90;44.70
8465;DHT22;4269;52.458;13.430;2022-07-29T14:30:50;36.80;40.80
8465;DHT22;4269;52.458;13.430;2022-07-29T14:33:16;38.50;37.90
8465;DHT22;4269;52.458;13.430;2022-07-29T14:35:42;40.00;34.40
8465;DHT22;4269;52.458;13.430;2022-07-29T14:40:33;42.20;29.90
8465;DHT22;4269;52.458;13.430;2022-07-29T14:42:59;42.30;28.60
8465;DHT22;4269;52.458;13.430;2022-07-29T14:45:24;43.40;26.10
8465;DHT22;4269;52.458;13.430;2022-07-29T14:47:50;44.90;25.50
8465;DHT22;4269;52.458;13.430;2022-07-29T14:50:16;45.30;24.80
8465;DHT22;4269;52.458;13.430;2022-07-29T14:52:42;45.10;24.20
8465;DHT22;4269;52.458;13.430;2022-07-29T14:55:08;45.90;23.50
8465;DHT22;4269;52.458;13.430;2022-07-29T14:57:34;46.70;22.30
8465;DHT22;4269;52.458;13.430;2022-07-29T14:59:59;44.60;22.90
8465;DHT22;4269;52.458;13.430;2022-07-29T15:02:25;42.20;24.30
8465;DHT22;4269;52.458;13.430;2022-07-29T15:04:50;40.50;25.70
8465;DHT22;4269;52.458;13.430;2022-07-29T15:07:16;38.90;26.90
8465;DHT22;4269;52.458;13.430;2022-07-29T15:09:42;37.60;28.10
8465;DHT22;4269;52.458;13.430;2022-07-29T15:12:10;38.30;27.40
8465;DHT22;4269;52.458;13.430;2022-07-29T15:19:28;44.00;23.10
8465;DHT22;4269;52.458;13.430;2022-07-29T15:21:54;45.10;22.80
8465;DHT22;4269;52.458;13.430;2022-07-29T15:24:19;46.10;21.70
8465;DHT22;4269;52.458;13.430;2022-07-29T15:26:46;47.20;20.30
8465;DHT22;4269;52.458;13.430;2022-07-29T15:29:11;47.40;20.20
8465;DHT22;4269;52.458;13.430;2022-07-29T15:31:37;47.90;20.20
8465;DHT22;4269;52.458;13.430;2022-07-29T15:34:03;48.30;19.40
8465;DHT22;4269;52.458;13.430;2022-07-29T15:36:29;47.80;18.50
8465;DHT22;4269;52.458;13.430;2022-07-29T15:38:54;47.80;18.90
8465;DHT22;4269;52.458;13.430;2022-07-29T15:41:21;48.70;18.50
8465;DHT22;4269;52.458;13.430;2022-07-29T15:43:47;49.10;18.10
8465;DHT22;4269;52.458;13.430;2022-07-29T15:46:14;49.30;17.70
8465;DHT22;4269;52.458;13.430;2022-07-29T15:48:59;49.20;18.00
8465;DHT22;4269;52.458;13.430;2022-07-29T15:51:24;49.00;18.00
8465;DHT22;4269;52.458;13.430;2022-07-29T15:53:50;48.70;18.20
8465;DHT22;4269;52.458;13.430;2022-07-29T15:56:16;48.50;17.60
8465;DHT22;4269;52.458;13.430;2022-07-29T15:58:42;48.50;18.00
8465;DHT22;4269;52.458;13.430;2022-07-29T16:01:08;48.20;18.10
8465;DHT22;4269;52.458;13.430;2022-07-29T16:03:34;47.70;18.00
8465;DHT22;4269;52.458;13.430;2022-07-29T16:05:59;46.90;18.10
8465;DHT22;4269;52.458;13.430;2022-07-29T16:08:25;46.80;18.40
8465;DHT22;4269;52.458;13.430;2022-07-29T16:10:50;47.90;18.80
8465;DHT22;4269;52.458;13.430;2022-07-29T16:13:16;47.90;18.70
8465;DHT22;4269;52.458;13.430;2022-07-29T16:15:42;47.30;18.10
8465;DHT22;4269;52.458;13.430;2022-07-29T16:18:08;46.40;18.90
8465;DHT22;4269;52.458;13.430;2022-07-29T16:20:35;45.90;19.00
8465;DHT22;4269;52.458;13.430;2022-07-29T16:23:01;45.40;19.20
8465;DHT22;4269;52.458;13.430;2022-07-29T16:25:26;45.60;19.00
8465;DHT22;4269;52.458;13.430;2022-07-29T16:30:18;46.60;18.30
8465;DHT22;4269;52.458;13.430;2022-07-29T16:32:44;46.90;18.70
8465;DHT22;4269;52.458;13.430;2022-07-29T16:35:10;46.50;18.60
8465;DHT22;4269;52.458;13.430;2022-07-29T16:37:35;45.70;18.80
8465;DHT22;4269;52.458;13.430;2022-07-29T16:40:04;44.70;18.90
8465;DHT22;4269;52.458;13.430;2022-07-29T16:42:30;44.60;19.30
8465;DHT22;4269;52.458;13.430;2022-07-29T16:44:56;43.70;19.80
8465;DHT22;4269;52.458;13.430;2022-07-29T16:47:21;43.70;19.50
8465;DHT22;4269;52.458;13.430;2022-07-29T16:49:47;43.80;19.30
8465;DHT22;4269;52.458;13.430;2022-07-29T16:52:12;43.50;19.80
8465;DHT22;4269;52.458;13.430;2022-07-29T16:54:38;42.40;20.00
8465;DHT22;4269;52.458;13.430;2022-07-29T16:57:05;42.40;20.40
8465;DHT22;4269;52.458;13.430;2022-07-29T16:59:30;38.90;22.40
8465;DHT22;4269;52.458;13.430;2022-07-29T17:01:57;37.40;24.10
8465;DHT22;4269;52.458;13.430;2022-07-29T17:04:23;35.80;25.20
8465;DHT22;4269;52.458;13.430;2022-07-29T17:06:49;34.70;26.60
8465;DHT22;4269;52.458;13.430;2022-07-29T17:09:15;34.20;28.10
8465;DHT22;4269;52.458;13.430;2022-07-29T17:11:41;33.80;27.90
8465;DHT22;4269;52.458;13.430;2022-07-29T17:14:08;35.50;27.90
8465;DHT22;4269;52.458;13.430;2022-07-29T17:16:34;36.00;26.20
8465;DHT22;4269;52.458;13.430;2022-07-29T17:19:00;35.50;25.30
8465;DHT22;4269;52.458;13.430;2022-07-29T17:21:25;35.60;25.70
8465;DHT22;4269;52.458;13.430;2022-07-29T17:23:51;36.70;25.50
8465;DHT22;4269;52.458;13.430;2022-07-29T17:26:18;37.70;23.90
8465;DHT22;4269;52.458;13.430;2022-07-29T17:28:44;37.70;24.30
8465;DHT22;4269;52.458;13.430;2022-07-29T17:31:10;35.60;26.20
8465;DHT22;4269;52.458;13.430;2022-07-29T17:33:35;34.60;27.00
8465;DHT22;4269;52.458;13.430;2022-07-29T17:36:01;34.00;27.10
8465;DHT22;4269;52.458;13.430;2022-07-29T17:38:46;32.90;28.50
8465;DHT22;4269;52.458;13.430;2022-07-29T17:41:12;32.40;28.40
8465;DHT22;4269;52.458;13.430;2022-07-29T17:43:37;34.30;30.70
8465;DHT22;4269;52.458;13.430;2022-07-29T17:46:03;31.50;29.80
8465;DHT22;4269;52.458;13.430;2022-07-29T17:48:28;30.90;30.80
8465;DHT22;4269;52.458;13.430;2022-07-29T17:50:55;30.50;30.80
8465;DHT22;4269;52.458;13.430;2022-07-29T17:53:21;30.30;32.70
8465;DHT22;4269;52.458;13.430;2022-07-29T17:58:14;29.80;32.70
8465;DHT22;4269;52.458;13.430;2022-07-29T18:00:40;29.70;33.30
8465;DHT22;4269;52.458;13.430;2022-07-29T18:03:06;29.30;32.70
8465;DHT22;4269;52.458;13.430;2022-07-29T18:05:32;29.20;32.70
8465;DHT22;4269;52.458;13.430;2022-07-29T18:10:24;28.60;34.30
8465;DHT22;4269;52.458;13.430;2022-07-29T18:12:49;28.80;34.80
8465;DHT22;4269;52.458;13.430;2022-07-29T18:15:15;28.40;35.30
8465;DHT22;4269;52.458;13.430;2022-07-29T18:17:41;28.20;34.70
8465;DHT22;4269;52.458;13.430;2022-07-29T18:20:07;28.60;35.40
8465;DHT22;4269;52.458;13.430;2022-07-29T18:22:33;28.00;36.10
8465;DHT22;4269;52.458;13.430;2022-07-29T18:24:59;27.70;37.40
8465;DHT22;4269;52.458;13.430;2022-07-29T18:29:51;27.60;35.90
8465;DHT22;4269;52.458;13.430;2022-07-29T18:34:44;27.40;35.90
8465;DHT22;4269;52.458;13.430;2022-07-29T18:37:10;27.00;36.70
8465;DHT22;4269;52.458;13.430;2022-07-29T18:46:53;26.60;37.50
8465;DHT22;4269;52.458;13.430;2022-07-29T18:49:22;26.20;37.90
8465;DHT22;4269;52.458;13.430;2022-07-29T18:51:49;26.50;38.70
8465;DHT22;4269;52.458;13.430;2022-07-29T18:54:15;26.40;38.40
8465;DHT22;4269;52.458;13.430;2022-07-29T18:56:43;26.20;39.70
8465;DHT22;4269;52.458;13.430;2022-07-29T19:04:02;26.00;40.60
8465;DHT22;4269;52.458;13.430;2022-07-29T19:08:54;25.90;40.10
8465;DHT22;4269;52.458;13.430;2022-07-29T19:16:13;25.70;40.70
8465;DHT22;4269;52.458;13.430;2022-07-29T19:28:24;25.20;42.30
8465;DHT22;4269;52.458;13.430;2022-07-29T19:30:50;25.60;41.90
8465;DHT22;4269;52.458;13.430;2022-07-29T19:33:16;25.10;42.80
8465;DHT22;4269;52.458;13.430;2022-07-29T19:57:43;24.60;43.50
8465;DHT22;4269;52.458;13.430;2022-07-29T20:00:10;24.50;43.50
8465;DHT22;4269;52.458;13.430;2022-07-29T20:07:28;24.40;44.40
8465;DHT22;4269;52.458;13.430;2022-07-29T20:12:21;24.50;43.70
8465;DHT22;4269;52.458;13.430;2022-07-29T20:14:47;24.40;44.80
8465;DHT22;4269;52.458;13.430;2022-07-29T20:24:33;24.30;44.70
8465;DHT22;4269;52.458;13.430;2022-07-29T20:26:59;24.20;44.40
8465;DHT22;4269;52.458;13.430;2022-07-29T20:29:25;24.20;45.80
8465;DHT22;4269;52.458;13.430;2022-07-29T20:34:16;24.00;46.80
8465;DHT22;4269;52.458;13.430;2022-07-29T20:36:42;24.00;45.90
8465;DHT22;4269;52.458;13.430;2022-07-29T20:39:08;23.90;46.20
8465;DHT22;4269;52.458;13.430;2022-07-29T20:41:33;24.00;46.20
8465;DHT22;4269;52.458;13.430;2022-07-29T20:44:00;24.10;48.20
8465;DHT22;4269;52.458;13.430;2022-07-29T20:46:26;23.80;47.30
8465;DHT22;4269;52.458;13.430;2022-07-29T20:48:52;22.90;46.40
8465;DHT22;4269;52.458;13.430;2022-07-29T20:51:18;23.80;46.20
8465;DHT22;4269;52.458;13.430;2022-07-29T20:53:44;23.70;47.60
8465;DHT22;4269;52.458;13.430;2022-07-29T20:58:37;23.50;46.80
8465;DHT22;4269;52.458;13.430;2022-07-29T21:01:04;23.50;47.60
8465;DHT22;4269;52.458;13.430;2022-07-29T21:03:30;23.50;49.40
8465;DHT22;4269;52.458;13.430;2022-07-29T21:05:57;23.40;49.10
8465;DHT22;4269;52.458;13.430;2022-07-29T21:10:49;23.50;50.20
8465;DHT22;4269;52.458;13.430;2022-07-29T21:25:43;23.20;49.60
8465;DHT22;4269;52.458;13.430;2022-07-29T21:28:08;23.30;48.40
8465;DHT22;4269;52.458;13.430;2022-07-29T21:30:56;22.80;49.50
8465;DHT22;4269;52.458;13.430;2022-07-29T21:33:22;23.20;49.40
8465;DHT22;4269;52.458;13.430;2022-07-29T21:35:47;23.10;49.60
8465;DHT22;4269;52.458;13.430;2022-07-29T21:43:09;22.30;49.20
8465;DHT22;4269;52.458;13.430;2022-07-29T21:48:00;22.90;49.80
8465;DHT22;4269;52.458;13.430;2022-07-29T21:55:18;22.80;50.30
8465;DHT22;4269;52.458;13.430;2022-07-29T22:00:11;22.80;50.50
8465;DHT22;4269;52.458;13.430;2022-07-29T22:02:43;22.80;52.70
8465;DHT22;4269;52.458;13.430;2022-07-29T22:05:10;22.70;51.00
8465;DHT22;4269;52.458;13.430;2022-07-29T22:10:04;22.70;51.10
8465;DHT22;4269;52.458;13.430;2022-07-29T22:12:30;22.70;51.80
8465;DHT22;4269;52.458;13.430;2022-07-29T22:14:57;22.70;53.10
8465;DHT22;4269;52.458;13.430;2022-07-29T22:19:49;22.60;53.70
8465;DHT22;4269;52.458;13.430;2022-07-29T22:22:15;22.50;51.70
8465;DHT22;4269;52.458;13.430;2022-07-29T22:44:10;22.50;54.90
8465;DHT22;4269;52.458;13.430;2022-07-29T22:58:46;22.20;55.40
8465;DHT22;4269;52.458;13.430;2022-07-29T23:03:39;22.30;55.80
8465;DHT22;4269;52.458;13.430;2022-07-29T23:20:42;21.80;55.60